sensor_id;sensor_type;location;lat;lon;timestamp;temperature;humidity
5786;DHT22;2919;48.630;9.000;2024-01-10T00:00:12;-5.80;99.90
5786;DHT22;2919;48.630;9.000;2024-01-10T00:02:38;-5.90;99.90
5786;DHT22;2919;48.630;9.000;2024-01-10T00:05:04;-5.80;99.90
5786;DHT22;2919;48.630;9.000;2024-01-10T00:07:29;-5.90;99.90
5786;DHT22;2919;48.630;9.000;2024-01-10T00:09:55;-5.90;99.90
5786;DHT22;2919;48.630;9.000;2024-01-10T00:12:21;-5.80;99.90
5786;DHT22;2919;48.630;9.000;2024-01-10T00:14:46;-5.90;99.90
5786;DHT22;2919;48.630;9.000;2024-01-10T00:17:12;-5.90;99.90
5786;DHT22;2919;48.630;9.000;2024-01-10T00:19:37;-5.90;99.90
5786;DHT22;2919;48.630;9.000;2024-01-10T00:22:03;-5.90;99.90
5786;DHT22;2919;48.630;9.000;2024-01-10T00:24:29;-5.90;99.90
5786;DHT22;2919;48.630;9.000;2024-01-10T00:26:54;-5.90;99.90
5786;DHT22;2919;48.630;9.000;2024-01-10T00:29:20;-5.90;99.90
5786;DHT22;2919;48.630;9.000;2024-01-10T00:31:46;-5.90;99.90
5786;DHT22;2919;48.630;9.000;2024-01-10T00:34:12;-5.80;99.90
5786;DHT22;2919;48.630;9.000;2024-01-10T00:36:37;-5.90;99.90
5786;DHT22;2919;48.630;9.000;2024-01-10T00:39:03;-5.60;99.90
5786;DHT22;2919;48.630;9.000;2024-01-10T00:41:29;-5.70;99.90
5786;DHT22;2919;48.630;9.000;2024-01-10T00:43:54;-5.50;99.90
5786;DHT22;2919;48.630;9.000;2024-01-10T00:46:20;-5.60;99.90
5786;DHT22;2919;48.630;9.000;2024-01-10T00:48:45;-5.70;99.90
5786;DHT22;2919;48.630;9.000;2024-01-10T00:51:11;-5.70;99.90
5786;DHT22;2919;48.630;9.000;2024-01-10T00:53:37;-5.60;99.90
5786;DHT22;2919;48.630;9.000;2024-01-10T00:56:04;-5.60;99.90
5786;DHT22;2919;48.630;9.000;2024-01-10T00:58:30;-5.60;99.90
5786;DHT22;2919;48.630;9.000;2024-01-10T01:00:55;-5.60;99.90
5786;DHT22;2919;48.630;9.000;2024-01-10T01:03:21;-5.50;99.90
5786;DHT22;2919;48.630;9.000;2024-01-10T01:05:46;-5.40;99.90
5786;DHT22;2919;48.630;9.000;2024-01-10T01:08:12;-5.50;99.90
5786;DHT22;2919;48.630;9.000;2024-01-10T01:10:37;-5.50;99.90
5786;DHT22;2919;48.630;9.000;2024-01-10T01:13:03;-5.50;99.90
5786;DHT22;2919;48.630;9.000;2024-01-10T01:15:29;-5.60;99.90
5786;DHT22;2919;48.630;9.000;2024-01-10T01:17:54;-5.50;99.90
5786;DHT22;2919;48.630;9.000;2024-01-10T01:20:19;-5.50;99.90
5786;DHT22;2919;48.630;9.000;2024-01-10T01:22:45;-5.50;99.90
5786;DHT22;2919;48.630;9.000;2024-01-10T01:25:10;-5.40;99.90
5786;DHT22;2919;48.630;9.000;2024-01-10T01:27:36;-5.30;99.90
5786;DHT22;2919;48.630;9.000;2024-01-10T01:30:01;-5.20;99.90
5786;DHT22;2919;48.630;9.000;2024-01-10T01:32:27;-5.20;99.90
5786;DHT22;2919;48.630;9.000;2024-01-10T01:34:53;-5.10;99.90
5786;DHT22;2919;48.630;9.000;2024-01-10T01:37:18;-5.00;99.90
5786;DHT22;2919;48.630;9.000;2024-01-10T01:39:44;-5.10;99.90
5786;DHT22;2919;48.630;9.000;2024-01-10T01:42:09;-5.00;99.90
5786;DHT22;2919;48.630;9.000;2024-01-10T01:44:35;-4.90;99.90
5786;DHT22;2919;48.630;9.000;2024-01-10T01:47:01;-4.90;99.90
5786;DHT22;2919;48.630;9.000;2024-01-10T01:49:27;-4.90;99.90
5786;DHT22;2919;48.630;9.000;2024-01-10T01:51:53;-4.90;99.90
5786;DHT22;2919;48.630;9.000;2024-01-10T01:54:19;-4.90;99.90
5786;DHT22;2919;48.630;9.000;2024-01-10T01:56:46;-4.90;99.90
5786;DHT22;2919;48.630;9.000;2024-01-10T01:59:11;-4.80;99.90
5786;DHT22;2919;48.630;9.000;2024-01-10T02:01:38;-4.70;99.50
5786;DHT22;2919;48.630;9.000;2024-01-10T02:04:04;-4.70;99.60
5786;DHT22;2919;48.630;9.000;2024-01-10T02:06:30;-4.70;98.90
5786;DHT22;2919;48.630;9.000;2024-01-10T02:08:56;-4.80;98.90
5786;DHT22;2919;48.630;9.000;2024-01-10T02:11:23;-4.80;98.60
5786;DHT22;2919;48.630;9.000;2024-01-10T02:13:49;-4.90;98.80
5786;DHT22;2919;48.630;9.000;2024-01-10T02:16:14;-4.80;99.00
5786;DHT22;2919;48.630;9.000;2024-01-10T02:18:40;-4.70;98.90
5786;DHT22;2919;48.630;9.000;2024-01-10T02:21:06;-4.70;98.90
5786;DHT22;2919;48.630;9.000;2024-01-10T02:23:31;-4.70;98.80
5786;DHT22;2919;48.630;9.000;2024-01-10T02:25:57;-4.60;98.70
5786;DHT22;2919;48.630;9.000;2024-01-10T02:28:22;-4.60;98.60
5786;DHT22;2919;48.630;9.000;2024-01-10T02:30:52;-4.60;98.30
5786;DHT22;2919;48.630;9.000;2024-01-10T02:33:18;-4.60;98.30
5786;DHT22;2919;48.630;9.000;2024-01-10T02:35:43;-4.60;98.10
5786;DHT22;2919;48.630;9.000;2024-01-10T02:38:09;-4.60;97.70
5786;DHT22;2919;48.630;9.000;2024-01-10T02:40:34;-4.60;97.90
5786;DHT22;2919;48.630;9.000;2024-01-10T02:43:00;-4.60;98.00
5786;DHT22;2919;48.630;9.000;2024-01-10T02:45:25;-4.50;98.00
5786;DHT22;2919;48.630;9.000;2024-01-10T02:47:51;-4.50;97.80
5786;DHT22;2919;48.630;9.000;2024-01-10T02:50:16;-4.50;97.80
5786;DHT22;2919;48.630;9.000;2024-01-10T02:52:42;-4.50;97.90
5786;DHT22;2919;48.630;9.000;2024-01-10T02:55:07;-4.80;98.10
5786;DHT22;2919;48.630;9.000;2024-01-10T02:57:33;-4.50;97.60
5786;DHT22;2919;48.630;9.000;2024-01-10T02:59:58;-4.50;97.40
5786;DHT22;2919;48.630;9.000;2024-01-10T03:02:24;-4.50;97.40
5786;DHT22;2919;48.630;9.000;2024-01-10T03:04:50;-4.50;97.50
5786;DHT22;2919;48.630;9.000;2024-01-10T03:07:15;-4.50;97.70
5786;DHT22;2919;48.630;9.000;2024-01-10T03:09:41;-4.50;97.40
5786;DHT22;2919;48.630;9.000;2024-01-10T03:12:06;-4.50;97.80
5786;DHT22;2919;48.630;9.000;2024-01-10T03:14:33;-4.50;97.80
5786;DHT22;2919;48.630;9.000;2024-01-10T03:16:58;-4.50;97.60
5786;DHT22;2919;48.630;9.000;2024-01-10T03:19:24;-4.50;97.80
5786;DHT22;2919;48.630;9.000;2024-01-10T03:21:49;-4.50;97.60
5786;DHT22;2919;48.630;9.000;2024-01-10T03:24:15;-4.60;97.20
5786;DHT22;2919;48.630;9.000;2024-01-10T03:26:40;-4.60;97.50
5786;DHT22;2919;48.630;9.000;2024-01-10T03:29:06;-4.60;97.70
5786;DHT22;2919;48.630;9.000;2024-01-10T03:31:31;-4.60;97.80
5786;DHT22;2919;48.630;9.000;2024-01-10T03:33:57;-4.50;97.90
5786;DHT22;2919;48.630;9.000;2024-01-10T03:36:23;-4.60;98.00
5786;DHT22;2919;48.630;9.000;2024-01-10T03:38:50;-4.60;98.30
5786;DHT22;2919;48.630;9.000;2024-01-10T03:41:16;-4.70;98.20
5786;DHT22;2919;48.630;9.000;2024-01-10T03:43:42;-4.70;98.20
5786;DHT22;2919;48.630;9.000;2024-01-10T03:46:11;-4.70;98.40
5786;DHT22;2919;48.630;9.000;2024-01-10T03:48:37;-4.70;98.50
5786;DHT22;2919;48.630;9.000;2024-01-10T03:51:07;-4.80;98.50
5786;DHT22;2919;48.630;9.000;2024-01-10T03:53:34;-4.80;98.70
5786;DHT22;2919;48.630;9.000;2024-01-10T03:55:59;-4.80;98.40
5786;DHT22;2919;48.630;9.000;2024-01-10T03:58:28;-4.80;98.80
5786;DHT22;2919;48.630;9.000;2024-01-10T04:00:54;-4.70;98.80
5786;DHT22;2919;48.630;9.000;2024-01-10T04:03:19;-4.80;98.70
5786;DHT22;2919;48.630;9.000;2024-01-10T04:05:45;-4.90;98.60
5786;DHT22;2919;48.630;9.000;2024-01-10T04:08:10;-4.80;99.10
5786;DHT22;2919;48.630;9.000;2024-01-10T04:10:36;-4.80;98.90
5786;DHT22;2919;48.630;9.000;2024-01-10T04:13:01;-4.70;99.10
5786;DHT22;2919;48.630;9.000;2024-01-10T04:15:27;-4.80;98.60
5786;DHT22;2919;48.630;9.000;2024-01-10T04:17:52;-4.70;98.60
5786;DHT22;2919;48.630;9.000;2024-01-10T04:20:18;-4.70;98.40
5786;DHT22;2919;48.630;9.000;2024-01-10T04:22:44;-4.60;98.70
5786;DHT22;2919;48.630;9.000;2024-01-10T04:25:10;-4.60;98.50
5786;DHT22;2919;48.630;9.000;2024-01-10T04:27:36;-4.60;98.80
5786;DHT22;2919;48.630;9.000;2024-01-10T04:30:02;-4.50;98.50
5786;DHT22;2919;48.630;9.000;2024-01-10T04:32:28;-4.50;98.30
5786;DHT22;2919;48.630;9.000;2024-01-10T04:34:53;-4.50;98.40
5786;DHT22;2919;48.630;9.000;2024-01-10T04:37:19;-4.50;98.10
5786;DHT22;2919;48.630;9.000;2024-01-10T04:39:44;-4.60;97.80
5786;DHT22;2919;48.630;9.000;2024-01-10T04:42:13;-4.60;97.90
5786;DHT22;2919;48.630;9.000;2024-01-10T04:44:39;-4.70;98.00
5786;DHT22;2919;48.630;9.000;2024-01-10T04:47:06;-4.80;98.30
5786;DHT22;2919;48.630;9.000;2024-01-10T04:49:32;-4.70;98.40
5786;DHT22;2919;48.630;9.000;2024-01-10T04:51:58;-4.70;98.20
5786;DHT22;2919;48.630;9.000;2024-01-10T04:54:24;-4.80;98.50
5786;DHT22;2919;48.630;9.000;2024-01-10T04:56:49;-4.70;98.50
5786;DHT22;2919;48.630;9.000;2024-01-10T04:59:15;-4.70;98.20
5786;DHT22;2919;48.630;9.000;2024-01-10T05:01:40;-4.80;98.60
5786;DHT22;2919;48.630;9.000;2024-01-10T05:04:06;-4.90;98.50
5786;DHT22;2919;48.630;9.000;2024-01-10T05:06:31;-4.90;98.30
5786;DHT22;2919;48.630;9.000;2024-01-10T05:08:57;-4.90;98.60
5786;DHT22;2919;48.630;9.000;2024-01-10T05:11:24;-4.80;98.70
5786;DHT22;2919;48.630;9.000;2024-01-10T05:13:51;-4.80;98.70
5786;DHT22;2919;48.630;9.000;2024-01-10T05:16:16;-4.80;98.80
5786;DHT22;2919;48.630;9.000;2024-01-10T05:18:42;-4.80;98.80
5786;DHT22;2919;48.630;9.000;2024-01-10T05:21:08;-4.90;98.90
5786;DHT22;2919;48.630;9.000;2024-01-10T05:23:33;-4.80;99.20
5786;DHT22;2919;48.630;9.000;2024-01-10T05:25:59;-4.90;99.00
5786;DHT22;2919;48.630;9.000;2024-01-10T05:28:24;-4.90;99.30
5786;DHT22;2919;48.630;9.000;2024-01-10T05:30:50;-5.00;99.20
5786;DHT22;2919;48.630;9.000;2024-01-10T05:33:15;-5.00;99.30
5786;DHT22;2919;48.630;9.000;2024-01-10T05:35:41;-5.00;99.30
5786;DHT22;2919;48.630;9.000;2024-01-10T05:38:07;-5.00;99.20
5786;DHT22;2919;48.630;9.000;2024-01-10T05:40:32;-5.00;99.50
5786;DHT22;2919;48.630;9.000;2024-01-10T05:42:58;-5.00;99.30
5786;DHT22;2919;48.630;9.000;2024-01-10T05:45:27;-5.10;99.40
5786;DHT22;2919;48.630;9.000;2024-01-10T05:47:54;-5.20;99.40
5786;DHT22;2919;48.630;9.000;2024-01-10T05:50:19;-5.20;99.60
5786;DHT22;2919;48.630;9.000;2024-01-10T05:52:45;-5.20;99.50
5786;DHT22;2919;48.630;9.000;2024-01-10T05:55:11;-5.30;99.70
5786;DHT22;2919;48.630;9.000;2024-01-10T05:57:37;-5.30;99.60
5786;DHT22;2919;48.630;9.000;2024-01-10T06:00:03;-5.30;99.50
5786;DHT22;2919;48.630;9.000;2024-01-10T06:02:30;-5.30;99.70
5786;DHT22;2919;48.630;9.000;2024-01-10T06:04:55;-5.40;99.90
5786;DHT22;2919;48.630;9.000;2024-01-10T06:07:21;-5.40;99.90
5786;DHT22;2919;48.630;9.000;2024-01-10T06:09:47;-5.50;99.90
5786;DHT22;2919;48.630;9.000;2024-01-10T06:12:13;-5.50;99.90
5786;DHT22;2919;48.630;9.000;2024-01-10T06:14:38;-5.50;99.90
5786;DHT22;2919;48.630;9.000;2024-01-10T06:17:04;-5.60;99.90
5786;DHT22;2919;48.630;9.000;2024-01-10T06:19:30;-5.50;99.90
5786;DHT22;2919;48.630;9.000;2024-01-10T06:21:58;-5.60;99.90
5786;DHT22;2919;48.630;9.000;2024-01-10T06:24:24;-5.60;99.90
5786;DHT22;2919;48.630;9.000;2024-01-10T06:26:50;-5.60;99.90
5786;DHT22;2919;48.630;9.000;2024-01-10T06:29:16;-5.70;99.90
5786;DHT22;2919;48.630;9.000;2024-01-10T06:31:41;-5.70;99.90
5786;DHT22;2919;48.630;9.000;2024-01-10T06:34:08;-5.70;99.90
5786;DHT22;2919;48.630;9.000;2024-01-10T06:36:33;-5.80;99.90
5786;DHT22;2919;48.630;9.000;2024-01-10T06:38:59;-5.80;99.90
5786;DHT22;2919;48.630;9.000;2024-01-10T06:41:24;-5.90;99.90
5786;DHT22;2919;48.630;9.000;2024-01-10T06:43:53;-5.90;99.90
5786;DHT22;2919;48.630;9.000;2024-01-10T06:46:19;-5.90;99.90
5786;DHT22;2919;48.630;9.000;2024-01-10T06:48:45;-5.90;99.90
5786;DHT22;2919;48.630;9.000;2024-01-10T06:51:14;-5.90;99.90
5786;DHT22;2919;48.630;9.000;2024-01-10T06:53:40;-6.00;99.90
5786;DHT22;2919;48.630;9.000;2024-01-10T06:56:06;-6.00;99.90
5786;DHT22;2919;48.630;9.000;2024-01-10T06:58:32;-6.00;99.90
5786;DHT22;2919;48.630;9.000;2024-01-10T07:00:58;-6.10;99.90
5786;DHT22;2919;48.630;9.000;2024-01-10T07:03:25;-6.10;99.90
5786;DHT22;2919;48.630;9.000;2024-01-10T07:05:51;-6.20;99.90
5786;DHT22;2919;48.630;9.000;2024-01-10T07:08:16;-6.20;99.90
5786;DHT22;2919;48.630;9.000;2024-01-10T07:10:42;-6.30;99.90
5786;DHT22;2919;48.630;9.000;2024-01-10T07:13:07;-6.20;99.90
5786;DHT22;2919;48.630;9.000;2024-01-10T07:15:33;-6.20;99.90
5786;DHT22;2919;48.630;9.000;2024-01-10T07:17:59;-6.30;99.90
5786;DHT22;2919;48.630;9.000;2024-01-10T07:20:24;-6.30;99.90
5786;DHT22;2919;48.630;9.000;2024-01-10T07:22:50;-6.20;99.90
5786;DHT22;2919;48.630;9.000;2024-01-10T07:25:16;-6.30;99.90
5786;DHT22;2919;48.630;9.000;2024-01-10T07:27:45;-6.20;99.90
5786;DHT22;2919;48.630;9.000;2024-01-10T07:30:11;-6.20;99.90
5786;DHT22;2919;48.630;9.000;2024-01-10T07:32:45;-6.20;99.90
5786;DHT22;2919;48.630;9.000;2024-01-10T07:35:12;-6.20;99.90
5786;DHT22;2919;48.630;9.000;2024-01-10T07:37:39;-6.10;99.90
5786;DHT22;2919;48.630;9.000;2024-01-10T07:40:06;-6.10;99.90
5786;DHT22;2919;48.630;9.000;2024-01-10T07:42:35;-6.00;99.90
5786;DHT22;2919;48.630;9.000;2024-01-10T07:45:01;-6.00;99.90
5786;DHT22;2919;48.630;9.000;2024-01-10T07:47:30;-6.10;99.90
5786;DHT22;2919;48.630;9.000;2024-01-10T07:49:57;-6.10;99.90
5786;DHT22;2919;48.630;9.000;2024-01-10T07:52:22;-6.00;99.90
5786;DHT22;2919;48.630;9.000;2024-01-10T07:54:48;-6.10;99.90
5786;DHT22;2919;48.630;9.000;2024-01-10T07:57:13;-6.00;99.90
5786;DHT22;2919;48.630;9.000;2024-01-10T07:59:39;-6.00;99.90
5786;DHT22;2919;48.630;9.000;2024-01-10T08:02:05;-6.00;99.90
5786;DHT22;2919;48.630;9.000;2024-01-10T08:04:30;-5.90;99.90
5786;DHT22;2919;48.630;9.000;2024-01-10T08:06:56;-5.80;99.90
5786;DHT22;2919;48.630;9.000;2024-01-10T08:09:22;-5.60;99.90
5786;DHT22;2919;48.630;9.000;2024-01-10T08:11:49;-5.80;99.90
5786;DHT22;2919;48.630;9.000;2024-01-10T08:14:14;-5.80;99.90
5786;DHT22;2919;48.630;9.000;2024-01-10T08:16:41;-5.40;99.90
5786;DHT22;2919;48.630;9.000;2024-01-10T08:19:07;-5.60;99.90
5786;DHT22;2919;48.630;9.000;2024-01-10T08:21:33;-5.60;99.90
5786;DHT22;2919;48.630;9.000;2024-01-10T08:23:58;-5.50;99.90
5786;DHT22;2919;48.630;9.000;2024-01-10T08:26:24;-5.40;99.90
5786;DHT22;2919;48.630;9.000;2024-01-10T08:28:49;-5.10;99.90
5786;DHT22;2919;48.630;9.000;2024-01-10T08:31:18;-5.20;99.90
5786;DHT22;2919;48.630;9.000;2024-01-10T08:33:43;-5.20;99.90
5786;DHT22;2919;48.630;9.000;2024-01-10T08:36:10;-5.20;99.90
5786;DHT22;2919;48.630;9.000;2024-01-10T08:38:36;-5.30;99.90
5786;DHT22;2919;48.630;9.000;2024-01-10T08:41:02;-5.20;99.90
5786;DHT22;2919;48.630;9.000;2024-01-10T08:43:28;-5.20;99.90
5786;DHT22;2919;48.630;9.000;2024-01-10T08:45:54;-5.20;99.90
5786;DHT22;2919;48.630;9.000;2024-01-10T08:48:19;-5.10;99.90
5786;DHT22;2919;48.630;9.000;2024-01-10T08:50:45;-5.00;99.90
5786;DHT22;2919;48.630;9.000;2024-01-10T08:53:11;-4.90;99.90
5786;DHT22;2919;48.630;9.000;2024-01-10T08:55:36;-4.80;99.90
5786;DHT22;2919;48.630;9.000;2024-01-10T08:58:05;-4.70;99.90
5786;DHT22;2919;48.630;9.000;2024-01-10T09:00:30;-4.60;99.90
5786;DHT22;2919;48.630;9.000;2024-01-10T09:02:56;-4.50;99.90
5786;DHT22;2919;48.630;9.000;2024-01-10T09:05:22;-4.40;99.90
5786;DHT22;2919;48.630;9.000;2024-01-10T09:07:48;-4.50;99.80
5786;DHT22;2919;48.630;9.000;2024-01-10T09:10:14;-4.30;99.90
5786;DHT22;2919;48.630;9.000;2024-01-10T09:12:40;-4.10;99.60
5786;DHT22;2919;48.630;9.000;2024-01-10T09:15:08;-4.10;99.30
5786;DHT22;2919;48.630;9.000;2024-01-10T09:17:38;-3.90;99.00
5786;DHT22;2919;48.630;9.000;2024-01-10T09:20:04;-3.90;98.60
5786;DHT22;2919;48.630;9.000;2024-01-10T09:22:29;-3.70;98.50
5786;DHT22;2919;48.630;9.000;2024-01-10T09:24:55;-3.70;98.20
5786;DHT22;2919;48.630;9.000;2024-01-10T09:27:20;-3.60;98.30
5786;DHT22;2919;48.630;9.000;2024-01-10T09:29:48;-3.50;98.10
5786;DHT22;2919;48.630;9.000;2024-01-10T09:32:13;-3.60;98.30
5786;DHT22;2919;48.630;9.000;2024-01-10T09:34:39;-3.50;98.50
5786;DHT22;2919;48.630;9.000;2024-01-10T09:37:04;-3.40;98.20
5786;DHT22;2919;48.630;9.000;2024-01-10T09:39:30;-3.50;98.20
5786;DHT22;2919;48.630;9.000;2024-01-10T09:41:56;-3.40;98.30
5786;DHT22;2919;48.630;9.000;2024-01-10T09:44:23;-3.50;97.80
5786;DHT22;2919;48.630;9.000;2024-01-10T09:46:51;-3.30;98.30
5786;DHT22;2919;48.630;9.000;2024-01-10T09:49:17;-3.10;97.80
5786;DHT22;2919;48.630;9.000;2024-01-10T09:51:44;-3.00;97.60
5786;DHT22;2919;48.630;9.000;2024-01-10T09:54:13;-2.80;97.90
5786;DHT22;2919;48.630;9.000;2024-01-10T09:56:41;-2.70;97.50
5786;DHT22;2919;48.630;9.000;2024-01-10T09:59:07;-2.70;97.30
5786;DHT22;2919;48.630;9.000;2024-01-10T10:01:39;-2.80;97.30
5786;DHT22;2919;48.630;9.000;2024-01-10T10:04:05;-2.60;97.30
5786;DHT22;2919;48.630;9.000;2024-01-10T10:06:33;-2.60;97.40
5786;DHT22;2919;48.630;9.000;2024-01-10T10:08:59;-2.70;97.80
5786;DHT22;2919;48.630;9.000;2024-01-10T10:11:25;-2.50;97.90
5786;DHT22;2919;48.630;9.000;2024-01-10T10:13:50;-2.50;97.80
5786;DHT22;2919;48.630;9.000;2024-01-10T10:16:23;-2.30;97.70
5786;DHT22;2919;48.630;9.000;2024-01-10T10:18:49;-2.40;97.20
5786;DHT22;2919;48.630;9.000;2024-01-10T10:21:15;-2.40;97.40
5786;DHT22;2919;48.630;9.000;2024-01-10T10:23:43;-2.30;97.70
5786;DHT22;2919;48.630;9.000;2024-01-10T10:26:22;-2.20;97.60
5786;DHT22;2919;48.630;9.000;2024-01-10T10:28:48;-2.20;97.70
5786;DHT22;2919;48.630;9.000;2024-01-10T10:31:14;-2.10;97.70
5786;DHT22;2919;48.630;9.000;2024-01-10T10:33:40;-1.90;97.70
5786;DHT22;2919;48.630;9.000;2024-01-10T10:36:06;-1.70;97.10
5786;DHT22;2919;48.630;9.000;2024-01-10T10:38:32;-1.70;96.90
5786;DHT22;2919;48.630;9.000;2024-01-10T10:40:59;-1.50;96.40
5786;DHT22;2919;48.630;9.000;2024-01-10T10:43:25;-1.40;96.10
5786;DHT22;2919;48.630;9.000;2024-01-10T10:45:51;-1.20;96.00
5786;DHT22;2919;48.630;9.000;2024-01-10T10:48:18;-1.00;95.80
5786;DHT22;2919;48.630;9.000;2024-01-10T10:51:03;-1.00;95.30
5786;DHT22;2919;48.630;9.000;2024-01-10T10:53:29;-1.10;95.70
5786;DHT22;2919;48.630;9.000;2024-01-10T10:55:57;-1.00;95.40
5786;DHT22;2919;48.630;9.000;2024-01-10T10:58:23;-0.70;96.30
5786;DHT22;2919;48.630;9.000;2024-01-10T11:00:49;-0.60;95.20
5786;DHT22;2919;48.630;9.000;2024-01-10T11:03:16;-0.40;94.80
5786;DHT22;2919;48.630;9.000;2024-01-10T11:05:43;-0.20;94.60
5786;DHT22;2919;48.630;9.000;2024-01-10T11:08:12;-0.30;94.80
5786;DHT22;2919;48.630;9.000;2024-01-10T11:10:40;-0.40;94.40
5786;DHT22;2919;48.630;9.000;2024-01-10T11:13:52;-0.40;95.00
5786;DHT22;2919;48.630;9.000;2024-01-10T11:16:20;-0.40;95.50
5786;DHT22;2919;48.630;9.000;2024-01-10T11:24:31;0.20;94.60
5786;DHT22;2919;48.630;9.000;2024-01-10T11:27:09;0.40;94.60
5786;DHT22;2919;48.630;9.000;2024-01-10T11:29:37;0.50;94.20
5786;DHT22;2919;48.630;9.000;2024-01-10T11:32:05;0.60;94.30
5786;DHT22;2919;48.630;9.000;2024-01-10T11:34:31;0.30;94.40
5786;DHT22;2919;48.630;9.000;2024-01-10T11:37:12;0.00;94.60
5786;DHT22;2919;48.630;9.000;2024-01-10T11:39:42;0.30;95.20
5786;DHT22;2919;48.630;9.000;2024-01-10T11:42:09;0.40;95.10
5786;DHT22;2919;48.630;9.000;2024-01-10T11:44:47;0.40;95.10
5786;DHT22;2919;48.630;9.000;2024-01-10T11:47:17;0.40;94.60
5786;DHT22;2919;48.630;9.000;2024-01-10T11:49:54;0.40;95.10
5786;DHT22;2919;48.630;9.000;2024-01-10T11:52:22;0.60;94.70
5786;DHT22;2919;48.630;9.000;2024-01-10T11:54:48;0.60;95.00
5786;DHT22;2919;48.630;9.000;2024-01-10T11:57:21;0.80;94.80
5786;DHT22;2919;48.630;9.000;2024-01-10T11:59:50;0.90;94.40
5786;DHT22;2919;48.630;9.000;2024-01-10T12:02:17;0.70;94.30
5786;DHT22;2919;48.630;9.000;2024-01-10T12:04:43;0.60;94.80
5786;DHT22;2919;48.630;9.000;2024-01-10T12:07:11;0.70;95.20
5786;DHT22;2919;48.630;9.000;2024-01-10T12:09:36;0.70;94.60
5786;DHT22;2919;48.630;9.000;2024-01-10T12:12:03;0.50;94.80
5786;DHT22;2919;48.630;9.000;2024-01-10T12:14:29;0.50;95.10
5786;DHT22;2919;48.630;9.000;2024-01-10T12:16:55;0.50;95.30
5786;DHT22;2919;48.630;9.000;2024-01-10T12:19:21;0.30;95.90
5786;DHT22;2919;48.630;9.000;2024-01-10T12:21:48;0.30;96.00
5786;DHT22;2919;48.630;9.000;2024-01-10T12:24:13;0.40;96.00
5786;DHT22;2919;48.630;9.000;2024-01-10T12:26:45;0.50;95.80
5786;DHT22;2919;48.630;9.000;2024-01-10T12:29:11;0.40;96.10
5786;DHT22;2919;48.630;9.000;2024-01-10T12:31:37;0.30;96.30
5786;DHT22;2919;48.630;9.000;2024-01-10T12:34:04;0.20;96.40
5786;DHT22;2919;48.630;9.000;2024-01-10T12:36:32;0.20;96.70
5786;DHT22;2919;48.630;9.000;2024-01-10T12:38:57;0.30;96.60
5786;DHT22;2919;48.630;9.000;2024-01-10T12:41:23;0.30;96.60
5786;DHT22;2919;48.630;9.000;2024-01-10T12:43:55;0.20;96.40
5786;DHT22;2919;48.630;9.000;2024-01-10T12:46:21;0.20;96.90
5786;DHT22;2919;48.630;9.000;2024-01-10T12:48:58;0.10;97.40
5786;DHT22;2919;48.630;9.000;2024-01-10T12:51:26;0.30;97.30
5786;DHT22;2919;48.630;9.000;2024-01-10T12:53:52;0.20;97.00
5786;DHT22;2919;48.630;9.000;2024-01-10T12:56:18;0.50;97.00
5786;DHT22;2919;48.630;9.000;2024-01-10T12:58:43;0.60;96.40
5786;DHT22;2919;48.630;9.000;2024-01-10T13:01:09;0.50;96.50
5786;DHT22;2919;48.630;9.000;2024-01-10T13:03:35;0.50;96.80
5786;DHT22;2919;48.630;9.000;2024-01-10T13:06:01;0.50;96.90
5786;DHT22;2919;48.630;9.000;2024-01-10T13:08:26;0.50;97.10
5786;DHT22;2919;48.630;9.000;2024-01-10T13:10:52;0.40;97.20
5786;DHT22;2919;48.630;9.000;2024-01-10T13:13:19;0.50;97.30
5786;DHT22;2919;48.630;9.000;2024-01-10T13:15:47;0.70;97.20
5786;DHT22;2919;48.630;9.000;2024-01-10T13:18:12;0.80;96.80
5786;DHT22;2919;48.630;9.000;2024-01-10T13:20:44;0.90;97.50
5786;DHT22;2919;48.630;9.000;2024-01-10T13:23:10;1.10;96.80
5786;DHT22;2919;48.630;9.000;2024-01-10T13:25:36;1.00;96.90
5786;DHT22;2919;48.630;9.000;2024-01-10T13:28:03;1.10;96.50
5786;DHT22;2919;48.630;9.000;2024-01-10T13:30:28;1.00;96.80
5786;DHT22;2919;48.630;9.000;2024-01-10T13:32:54;0.90;96.90
5786;DHT22;2919;48.630;9.000;2024-01-10T13:35:19;0.90;97.20
5786;DHT22;2919;48.630;9.000;2024-01-10T13:37:45;1.10;97.00
5786;DHT22;2919;48.630;9.000;2024-01-10T13:40:12;1.10;97.10
5786;DHT22;2919;48.630;9.000;2024-01-10T13:42:41;1.10;96.40
5786;DHT22;2919;48.630;9.000;2024-01-10T13:45:08;1.00;96.80
5786;DHT22;2919;48.630;9.000;2024-01-10T13:47:36;1.00;96.60
5786;DHT22;2919;48.630;9.000;2024-01-10T13:50:03;1.10;96.90
5786;DHT22;2919;48.630;9.000;2024-01-10T13:52:29;1.10;96.70
5786;DHT22;2919;48.630;9.000;2024-01-10T13:54:55;1.10;96.50
5786;DHT22;2919;48.630;9.000;2024-01-10T13:57:21;0.90;96.70
5786;DHT22;2919;48.630;9.000;2024-01-10T13:59:47;0.80;96.90
5786;DHT22;2919;48.630;9.000;2024-01-10T14:02:13;0.70;97.00
5786;DHT22;2919;48.630;9.000;2024-01-10T14:04:39;0.60;97.20
5786;DHT22;2919;48.630;9.000;2024-01-10T14:07:05;0.60;97.60
5786;DHT22;2919;48.630;9.000;2024-01-10T14:09:31;0.60;97.30
5786;DHT22;2919;48.630;9.000;2024-01-10T14:11:56;0.60;97.50
5786;DHT22;2919;48.630;9.000;2024-01-10T14:14:22;0.70;97.40
5786;DHT22;2919;48.630;9.000;2024-01-10T14:16:48;0.70;97.30
5786;DHT22;2919;48.630;9.000;2024-01-10T14:19:13;0.70;97.20
5786;DHT22;2919;48.630;9.000;2024-01-10T14:21:39;0.70;97.30
5786;DHT22;2919;48.630;9.000;2024-01-10T14:24:04;0.70;97.40
5786;DHT22;2919;48.630;9.000;2024-01-10T14:26:30;2.10;98.10
5786;DHT22;2919;48.630;9.000;2024-01-10T14:28:55;0.70;97.50
5786;DHT22;2919;48.630;9.000;2024-01-10T14:31:22;0.70;97.60
5786;DHT22;2919;48.630;9.000;2024-01-10T14:33:48;2.00;98.10
5786;DHT22;2919;48.630;9.000;2024-01-10T14:36:14;0.70;97.40
5786;DHT22;2919;48.630;9.000;2024-01-10T14:38:39;0.80;97.60
5786;DHT22;2919;48.630;9.000;2024-01-10T14:41:07;0.50;97.70
5786;DHT22;2919;48.630;9.000;2024-01-10T14:43:33;0.50;98.00
5786;DHT22;2919;48.630;9.000;2024-01-10T14:45:58;0.40;98.00
5786;DHT22;2919;48.630;9.000;2024-01-10T14:48:24;0.40;98.00
5786;DHT22;2919;48.630;9.000;2024-01-10T14:50:49;0.40;98.20
5786;DHT22;2919;48.630;9.000;2024-01-10T14:53:16;0.40;98.40
5786;DHT22;2919;48.630;9.000;2024-01-10T14:55:41;0.30;98.40
5786;DHT22;2919;48.630;9.000;2024-01-10T14:58:07;0.30;98.50
5786;DHT22;2919;48.630;9.000;2024-01-10T15:00:32;0.30;98.80
5786;DHT22;2919;48.630;9.000;2024-01-10T15:02:58;2.10;99.70
5786;DHT22;2919;48.630;9.000;2024-01-10T15:05:23;0.20;98.80
5786;DHT22;2919;48.630;9.000;2024-01-10T15:07:50;0.20;99.10
5786;DHT22;2919;48.630;9.000;2024-01-10T15:10:16;0.20;99.40
5786;DHT22;2919;48.630;9.000;2024-01-10T15:12:42;0.20;99.40
5786;DHT22;2919;48.630;9.000;2024-01-10T15:15:09;0.10;99.60
5786;DHT22;2919;48.630;9.000;2024-01-10T15:17:34;0.00;99.60
5786;DHT22;2919;48.630;9.000;2024-01-10T15:20:00;0.10;99.60
5786;DHT22;2919;48.630;9.000;2024-01-10T15:22:25;0.00;99.30
5786;DHT22;2919;48.630;9.000;2024-01-10T15:24:52;-0.10;99.30
5786;DHT22;2919;48.630;9.000;2024-01-10T15:27:18;-0.10;99.60
5786;DHT22;2919;48.630;9.000;2024-01-10T15:29:44;-0.20;99.80
5786;DHT22;2919;48.630;9.000;2024-01-10T15:32:09;-0.30;99.90
5786;DHT22;2919;48.630;9.000;2024-01-10T15:34:35;-0.40;99.90
5786;DHT22;2919;48.630;9.000;2024-01-10T15:37:00;-0.40;99.90
5786;DHT22;2919;48.630;9.000;2024-01-10T15:39:26;-0.40;99.90
5786;DHT22;2919;48.630;9.000;2024-01-10T15:41:51;-0.50;99.90
5786;DHT22;2919;48.630;9.000;2024-01-10T15:44:17;-0.50;99.90
5786;DHT22;2919;48.630;9.000;2024-01-10T15:46:43;-0.50;99.90
5786;DHT22;2919;48.630;9.000;2024-01-10T15:49:09;-0.60;99.90
5786;DHT22;2919;48.630;9.000;2024-01-10T15:51:34;-0.70;99.90
5786;DHT22;2919;48.630;9.000;2024-01-10T15:53:59;-0.80;99.90
5786;DHT22;2919;48.630;9.000;2024-01-10T15:56:25;-0.90;99.90
5786;DHT22;2919;48.630;9.000;2024-01-10T15:58:51;-0.90;99.90
5786;DHT22;2919;48.630;9.000;2024-01-10T16:01:16;-1.00;99.90
5786;DHT22;2919;48.630;9.000;2024-01-10T16:03:42;-1.00;99.90